Time;durP1;ratioP1;P1;durP2;ratioP2;P2;SDS_P1;SDS_P2;PMS_P1;PMS_P2;Temp;Humidity;BMP_temperature;BMP_pressure;BME280_temperature;BME280_humidity;BME280_pressure;Samples;Min_cycle;Max_cycle;Signal;HPM_P1;HPM_P2
2024/01/02 00:01:07;;;;;;;17.20;2.90;;;;;;;-146.25;100.00;70816.00;5073274;28;20041;-60
2024/01/02 00:03:33;;;;;;;15.05;3.60;;;;;;;-146.25;100.00;70816.00;5072847;28;20024;-60
2024/01/02 00:05:59;;;;;;;16.98;2.97;;;;;;;-146.25;100.00;70816.00;5073235;28;20051;-59
2024/01/02 00:08:24;;;;;;;18.08;3.13;;;;;;;-146.25;100.00;70816.00;5074498;28;20033;-60
2024/01/02 00:10:49;;;;;;;17.92;3.10;;;;;;;-146.25;100.00;70816.00;5072475;28;20145;-60
2024/01/02 00:13:14;;;;;;;16.80;3.30;;;;;;;-146.25;100.00;70816.00;5073150;28;20475;-59
2024/01/02 00:15:40;;;;;;;16.30;2.90;;;;;;;-146.25;100.00;70816.00;5071112;28;20044;-61
2024/01/02 00:18:05;;;;;;;16.55;2.92;;;;;;;-146.25;100.00;70816.00;5073567;28;20039;-60
2024/01/02 00:20:30;;;;;;;17.23;2.70;;;;;;;-146.25;100.00;70816.00;5074124;28;20498;-59
2024/01/02 00:22:56;;;;;;;12.90;2.72;;;;;;;-146.25;100.00;70816.00;5072193;28;20025;-60
2024/01/02 00:25:21;;;;;;;14.55;2.72;;;;;;;-146.25;100.00;70816.00;5072552;28;20043;-60
2024/01/02 00:27:47;;;;;;;17.15;3.00;;;;;;;-146.25;100.00;70816.00;5071886;28;20217;-59
2024/01/02 00:30:13;;;;;;;18.58;3.20;;;;;;;-146.25;100.00;70816.00;5071764;28;20020;-60
2024/01/02 00:32:38;;;;;;;12.93;2.83;;;;;;;-146.25;100.00;70816.00;5071752;28;20743;-59
2024/01/02 00:35:04;;;;;;;17.08;2.85;;;;;;;-146.25;100.00;70816.00;5073189;28;20499;-60
2024/01/02 00:37:29;;;;;;;11.35;2.28;;;;;;;-146.25;100.00;70816.00;5074711;28;20044;-59
2024/01/02 00:39:55;;;;;;;15.43;3.05;;;;;;;-146.25;100.00;70816.00;5070387;28;20028;-59
2024/01/02 00:42:20;;;;;;;17.00;2.63;;;;;;;-146.25;100.00;70816.00;5072045;28;20048;-60
2024/01/02 00:44:46;;;;;;;13.07;2.63;;;;;;;-146.25;100.00;70816.00;5072839;28;20036;-59
2024/01/02 00:47:12;;;;;;;15.00;2.25;;;;;;;-146.25;100.00;70816.00;5073160;28;20032;-59
2024/01/02 00:49:38;;;;;;;16.65;2.83;;;;;;;-146.25;100.00;70816.00;5072923;28;20431;-59
2024/01/02 00:52:03;;;;;;;14.00;2.30;;;;;;;-146.25;100.00;70816.00;5072438;28;20048;-61
2024/01/02 00:54:29;;;;;;;14.10;2.67;;;;;;;-146.25;100.00;70816.00;5072379;28;20099;-60
2024/01/02 00:56:55;;;;;;;17.33;2.95;;;;;;;-146.25;100.00;70816.00;5075280;28;20089;-60
2024/01/02 00:59:21;;;;;;;9.80;2.08;;;;;;;-146.25;100.00;70816.00;5076097;28;20099;-61
2024/01/02 01:01:46;;;;;;;12.57;1.70;;;;;;;-146.25;100.00;70816.00;5076728;28;20113;-60
2024/01/02 01:04:11;;;;;;;12.23;1.90;;;;;;;-146.25;100.00;70816.00;5074754;28;20483;-61
2024/01/02 01:06:37;;;;;;;8.30;1.77;;;;;;;-146.25;100.00;70816.00;5076859;28;20032;-61
2024/01/02 01:09:02;;;;;;;9.93;2.10;;;;;;;-146.25;100.00;70816.00;5076343;28;20033;-61
2024/01/02 01:11:28;;;;;;;10.52;1.70;;;;;;;-146.25;100.00;70816.00;5064765;28;20162;-62
2024/01/02 01:13:53;;;;;;;14.10;2.10;;;;;;;-146.25;100.00;70816.00;5074686;28;20108;-61
2024/01/02 01:16:18;;;;;;;8.20;1.95;;;;;;;-146.25;100.00;70816.00;5074801;28;20170;-59
2024/01/02 01:18:44;;;;;;;11.02;2.50;;;;;;;-146.25;100.00;70816.00;5076436;28;20029;-59
2024/01/02 01:21:09;;;;;;;11.32;1.85;;;;;;;-146.25;100.00;70816.00;5074610;28;20044;-59
2024/01/02 01:23:34;;;;;;;8.07;1.85;;;;;;;-146.25;100.00;70816.00;5077081;28;20052;-61
2024/01/02 01:26:00;;;;;;;6.63;1.67;;;;;;;-146.25;100.00;70816.00;5074711;28;20036;-60
2024/01/02 01:28:25;;;;;;;7.63;1.52;;;;;;;-146.25;100.00;70816.00;5074406;28;20047;-61
2024/01/02 01:30:50;;;;;;;9.63;1.67;;;;;;;-146.25;100.00;70816.00;5072309;28;20071;-61
2024/01/02 01:33:16;;;;;;;10.70;1.80;;;;;;;-146.25;100.00;70816.00;5076506;28;20086;-59
2024/01/02 01:35:41;;;;;;;8.77;1.75;;;;;;;-146.25;100.00;70816.00;5076786;28;20059;-60
2024/01/02 01:38:07;;;;;;;3.90;1.33;;;;;;;-146.25;100.00;70816.00;5072640;28;20049;-60
2024/01/02 01:40:32;;;;;;;5.72;1.40;;;;;;;-146.25;100.00;70816.00;5078317;28;20123;-60
2024/01/02 01:42:58;;;;;;;5.55;1.48;;;;;;;-146.25;100.00;70816.00;5073318;28;20024;-60
2024/01/02 01:45:23;;;;;;;7.85;1.58;;;;;;;-146.25;100.00;70816.00;5074525;28;20395;-61
2024/01/02 01:47:50;;;;;;;6.38;1.50;;;;;;;-146.25;100.00;70816.00;5075340;28;20487;-60
2024/01/02 01:50:16;;;;;;;8.95;1.63;;;;;;;-146.25;100.00;70816.00;5063630;28;20067;-60
2024/01/02 01:52:43;;;;;;;5.65;1.42;;;;;;;-146.25;100.00;70816.00;5075321;28;21557;-60
2024/01/02 01:55:10;;;;;;;4.63;1.08;;;;;;;-146.25;100.00;70816.00;5076062;28;20055;-61
2024/01/02 01:57:36;;;;;;;6.70;1.58;;;;;;;-146.25;100.00;70816.00;5075572;28;20393;-61
2024/01/02 02:00:01;;;;;;;6.03;1.60;;;;;;;-146.25;100.00;70816.00;5075357;28;20032;-60
2024/01/02 02:02:27;;;;;;;6.18;1.50;;;;;;;-146.25;100.00;70816.00;5074538;28;20066;-61
2024/01/02 02:04:53;;;;;;;3.55;1.20;;;;;;;-146.25;100.00;70816.00;5075365;28;20044;-60
2024/01/02 02:07:18;;;;;;;3.75;1.30;;;;;;;-146.25;100.00;70816.00;5075024;28;20032;-60
2024/01/02 02:09:43;;;;;;;7.75;1.65;;;;;;;-146.25;100.00;70816.00;5075076;28;20039;-62
2024/01/02 02:12:09;;;;;;;4.40;1.30;;;;;;;-146.25;100.00;70816.00;5074782;28;20041;-61
2024/01/02 02:14:34;;;;;;;6.55;1.67;;;;;;;-146.25;100.00;70816.00;5075268;28;20048;-61
2024/01/02 02:17:00;;;;;;;4.72;1.33;;;;;;;-146.25;100.00;70816.00;5073488;28;20048;-61
2024/01/02 02:19:26;;;;;;;5.25;1.30;;;;;;;-146.25;100.00;70816.00;5063421;28;20447;-60
2024/01/02 02:21:52;;;;;;;4.00;1.20;;;;;;;-146.25;100.00;70816.00;5074762;28;20122;-60
2024/01/02 02:24:18;;;;;;;3.30;0.93;;;;;;;-146.25;100.00;70816.00;5071971;28;20032;-61
2024/01/02 02:26:43;;;;;;;4.30;1.15;;;;;;;-146.25;100.00;70816.00;5076066;28;20045;-60
2024/01/02 02:29:09;;;;;;;5.03;1.35;;;;;;;-146.25;100.00;70816.00;5073543;28;20028;-62
2024/01/02 02:31:34;;;;;;;6.07;1.15;;;;;;;-146.25;100.00;70816.00;5074613;28;20618;-61
2024/01/02 02:34:00;;;;;;;2.45;0.93;;;;;;;-146.25;100.00;70816.00;5078225;28;20040;-61
2024/01/02 02:36:25;;;;;;;3.28;0.90;;;;;;;-146.25;100.00;70816.00;5073261;28;20045;-61
2024/01/02 02:38:50;;;;;;;5.13;1.15;;;;;;;-146.25;100.00;70816.00;5075798;28;20036;-61
2024/01/02 02:41:16;;;;;;;7.03;1.17;;;;;;;-146.25;100.00;70816.00;5075297;28;20046;-61
2024/01/02 02:43:41;;;;;;;3.28;0.90;;;;;;;-146.25;100.00;70816.00;5077340;28;20191;-61
2024/01/02 02:46:06;;;;;;;1.08;0.80;;;;;;;-146.25;100.00;70816.00;5073181;28;20118;-61
2024/01/02 02:48:31;;;;;;;1.65;0.73;;;;;;;-146.25;100.00;70816.00;5075899;28;20182;-61
2024/01/02 02:50:57;;;;;;;2.38;0.90;;;;;;;-146.25;100.00;70816.00;5074423;28;20105;-61
2024/01/02 02:53:22;;;;;;;3.42;1.10;;;;;;;-146.25;100.00;70816.00;5073872;28;20386;-61
2024/01/02 02:55:48;;;;;;;1.08;0.60;;;;;;;-146.25;100.00;70816.00;5073060;28;20562;-61
2024/01/02 02:58:13;;;;;;;1.80;0.88;;;;;;;-146.25;100.00;70816.00;5072086;28;20043;-62
2024/01/02 03:00:38;;;;;;;5.20;0.88;;;;;;;-146.25;100.00;70816.00;5075604;28;20040;-61
2024/01/02 03:03:04;;;;;;;3.55;1.20;;;;;;;-146.25;100.00;70816.00;5075598;28;20036;-62
2024/01/02 03:05:30;;;;;;;5.50;0.95;;;;;;;-146.25;100.00;70816.00;5072128;28;20126;-60
2024/01/02 03:07:57;;;;;;;2.90;0.90;;;;;;;-146.25;100.00;70816.00;5074291;28;20150;-61
2024/01/02 03:10:23;;;;;;;2.40;0.88;;;;;;;-146.25;100.00;70816.00;5073816;28;20126;-62
2024/01/02 03:12:49;;;;;;;2.47;0.70;;;;;;;-146.25;100.00;70816.00;5075262;28;20035;-61
2024/01/02 03:15:14;;;;;;;4.25;0.80;;;;;;;-146.25;100.00;70816.00;5072580;28;20032;-61
2024/01/02 03:17:40;;;;;;;1.90;0.90;;;;;;;-146.25;100.00;70816.00;5075358;28;20032;-61
2024/01/02 03:20:06;;;;;;;3.15;0.80;;;;;;;-146.25;100.00;70816.00;5071103;28;20369;-61
2024/01/02 03:22:31;;;;;;;6.90;1.15;;;;;;;-146.25;100.00;70816.00;5075026;28;20036;-62
2024/01/02 03:24:57;;;;;;;5.63;1.33;;;;;;;-146.25;100.00;70816.00;5073806;28;20400;-61
2024/01/02 03:27:22;;;;;;;2.30;0.80;;;;;;;-146.25;100.00;70816.00;5074346;28;20135;-62
2024/01/02 03:29:48;;;;;;;2.58;0.70;;;;;;;-146.25;100.00;70816.00;5071748;28;20045;-60
2024/01/02 03:32:13;;;;;;;1.95;0.70;;;;;;;-146.25;100.00;70816.00;5074720;28;20036;-60
2024/01/02 03:34:38;;;;;;;2.08;0.75;;;;;;;-146.25;100.00;70816.00;5071384;28;20068;-60
2024/01/02 03:37:04;;;;;;;1.92;0.90;;;;;;;-146.25;100.00;70816.00;5073998;28;20044;-61
2024/01/02 03:39:29;;;;;;;1.73;0.85;;;;;;;-146.25;100.00;70816.00;5071622;28;20036;-60
2024/01/02 03:41:55;;;;;;;1.02;0.77;;;;;;;-146.25;100.00;70816.00;5075665;28;20054;-61
2024/01/02 03:44:20;;;;;;;1.73;1.00;;;;;;;-146.25;100.00;70816.00;5072291;28;20371;-58
2024/01/02 03:46:45;;;;;;;9.25;2.25;;;;;;;-146.25;100.00;70816.00;5077206;28;20048;-58
2024/01/02 03:49:11;;;;;;;0.57;0.57;;;;;;;-146.25;100.00;70816.00;5076122;28;20032;-59
2024/01/02 03:51:36;;;;;;;1.58;0.70;;;;;;;-146.25;100.00;70816.00;5074329;28;20451;-60
2024/01/02 03:54:01;;;;;;;1.15;0.70;;;;;;;-146.25;100.00;70816.00;5074521;28;20037;-60
2024/01/02 03:56:27;;;;;;;1.10;0.77;;;;;;;-146.25;100.00;70816.00;5072922;28;20048;-60
2024/01/02 03:58:52;;;;;;;0.90;0.70;;;;;;;-146.25;100.00;70816.00;5072964;28;20044;-61
2024/01/02 04:01:17;;;;;;;0.75;0.60;;;;;;;-146.25;100.00;70816.00;5074311;28;20551;-60
2024/01/02 04:03:43;;;;;;;1.15;0.50;;;;;;;-146.25;100.00;70816.00;5072739;28;20036;-61
2024/01/02 04:06:08;;;;;;;2.05;0.88;;;;;;;-146.25;100.00;70816.00;5073230;28;20150;-60
2024/01/02 04:08:36;;;;;;;0.75;0.70;;;;;;;-146.25;100.00;70816.00;5073963;28;20434;-61
2024/01/02 04:11:02;;;;;;;1.02;0.70;;;;;;;-146.25;100.00;70816.00;5071874;28;20055;-62
2024/01/02 04:13:27;;;;;;;1.58;0.60;;;;;;;-146.25;100.00;70816.00;5071898;28;20048;-60
2024/01/02 04:15:52;;;;;;;1.13;0.70;;;;;;;-146.25;100.00;70816.00;5072709;28;20044;-60
2024/01/02 04:18:18;;;;;;;0.47;0.47;;;;;;;-146.25;100.00;70816.00;5072015;28;20551;-59
2024/01/02 04:20:43;;;;;;;0.63;0.60;;;;;;;-146.25;100.00;70816.00;5074510;28;20036;-60
2024/01/02 04:23:08;;;;;;;0.68;0.52;;;;;;;-146.25;100.00;70816.00;5072522;28;20040;-60
2024/01/02 04:25:33;;;;;;;2.05;0.60;;;;;;;-146.25;100.00;70816.00;5074004;28;20514;-60
2024/01/02 04:27:59;;;;;;;1.48;0.80;;;;;;;-146.25;100.00;70816.00;5073577;28;20024;-60
2024/01/02 04:30:24;;;;;;;1.02;0.88;;;;;;;-146.25;100.00;70816.00;5074250;28;20047;-60
2024/01/02 04:32:50;;;;;;;1.20;1.00;;;;;;;-146.25;100.00;70816.00;5078887;28;20024;-60
2024/01/02 04:35:16;;;;;;;1.20;0.82;;;;;;;-146.25;100.00;70816.00;5076113;28;20187;-60
2024/01/02 04:37:42;;;;;;;3.13;1.20;;;;;;;-146.25;100.00;70816.00;5079367;28;20089;-61
2024/01/02 04:40:10;;;;;;;2.60;1.15;;;;;;;-146.25;100.00;70816.00;5080232;28;20119;-60
2024/01/02 04:42:37;;;;;;;2.03;1.25;;;;;;;-146.25;100.00;70816.00;5077990;28;20593;-60
2024/01/02 04:45:03;;;;;;;1.67;0.95;;;;;;;-146.25;100.00;70816.00;5079981;28;20073;-60
2024/01/02 04:47:29;;;;;;;2.53;1.30;;;;;;;-146.25;100.00;70816.00;5078153;28;20040;-60
2024/01/02 04:49:55;;;;;;;4.25;1.50;;;;;;;-146.25;100.00;70816.00;5076197;28;20484;-60
2024/01/02 04:52:20;;;;;;;1.75;1.30;;;;;;;-146.25;100.00;70816.00;5074172;28;20040;-59
2024/01/02 04:54:46;;;;;;;2.22;1.10;;;;;;;-146.25;100.00;70816.00;5075112;28;20617;-58
2024/01/02 04:57:11;;;;;;;1.65;1.35;;;;;;;-146.25;100.00;70816.00;5076956;28;20128;-59
2024/01/02 04:59:36;;;;;;;1.40;1.30;;;;;;;-146.25;100.00;70816.00;5075315;28;20510;-60
2024/01/02 05:02:02;;;;;;;2.33;1.33;;;;;;;-146.25;100.00;70816.00;5077501;28;20112;-60
2024/01/02 05:04:27;;;;;;;2.08;1.45;;;;;;;-146.25;100.00;70816.00;5075414;28;20029;-60
2024/01/02 05:06:52;;;;;;;0.80;0.80;;;;;;;-146.25;100.00;70816.00;5076078;28;20041;-60
2024/01/02 05:09:18;;;;;;;1.40;1.30;;;;;;;-146.25;100.00;70816.00;5064684;28;20450;-60
2024/01/02 05:11:43;;;;;;;1.15;1.08;;;;;;;-146.25;100.00;70816.00;5075954;28;20488;-60
2024/01/02 05:14:08;;;;;;;1.02;1.02;;;;;;;-146.25;100.00;70816.00;5077966;28;20040;-60
2024/01/02 05:16:33;;;;;;;0.90;0.90;;;;;;;-146.25;100.00;70816.00;5076523;28;20445;-60
2024/01/02 05:18:59;;;;;;;1.27;1.00;;;;;;;-146.25;100.00;70816.00;5076759;28;20160;-60
2024/01/02 05:21:24;;;;;;;1.05;0.98;;;;;;;-146.25;100.00;70816.00;5076694;28;20555;-60
2024/01/02 05:23:49;;;;;;;1.33;1.00;;;;;;;-146.25;100.00;70816.00;5065284;28;20595;-60
2024/01/02 05:26:15;;;;;;;1.45;0.88;;;;;;;-146.25;100.00;70816.00;5076603;28;20044;-60
2024/01/02 05:28:40;;;;;;;2.88;1.20;;;;;;;-146.25;100.00;70816.00;5075481;28;20178;-60
2024/01/02 05:31:05;;;;;;;1.08;1.05;;;;;;;-146.25;100.00;70816.00;5074360;28;20032;-60
2024/01/02 05:33:31;;;;;;;1.65;0.90;;;;;;;-146.25;100.00;70816.00;5075590;28;20070;-59
2024/01/02 05:35:56;;;;;;;3.22;1.10;;;;;;;-146.25;100.00;70816.00;5076068;28;20697;-60
2024/01/02 05:38:22;;;;;;;1.70;1.00;;;;;;;-146.25;100.00;70816.00;5076477;28;20036;-60
2024/01/02 05:40:48;;;;;;;1.35;1.17;;;;;;;-146.25;100.00;70816.00;5074769;28;20491;-59
2024/01/02 05:43:13;;;;;;;0.90;0.82;;;;;;;-146.25;100.00;70816.00;5074433;28;20132;-59
2024/01/02 05:45:38;;;;;;;1.42;1.25;;;;;;;-146.25;100.00;70816.00;5077417;28;20028;-57
2024/01/02 05:48:05;;;;;;;3.17;1.20;;;;;;;-146.25;100.00;70816.00;5074988;28;20046;-61
2024/01/02 05:50:30;;;;;;;1.15;1.05;;;;;;;-146.25;100.00;70816.00;5077313;28;20060;-60
2024/01/02 05:52:57;;;;;;;1.88;1.10;;;;;;;-146.25;100.00;70816.00;5074954;28;20117;-60
2024/01/02 05:55:22;;;;;;;1.88;1.00;;;;;;;-146.25;100.00;70816.00;5072792;28;20064;-61
2024/01/02 05:57:48;;;;;;;1.58;0.95;;;;;;;-146.25;100.00;70816.00;5076280;28;20114;-60
2024/01/02 06:00:13;;;;;;;1.23;1.13;;;;;;;-146.25;100.00;70816.00;5073205;28;20123;-61
2024/01/02 06:02:38;;;;;;;0.90;0.80;;;;;;;-146.25;100.00;70816.00;5074733;28;20028;-60
2024/01/02 06:05:04;;;;;;;0.77;0.70;;;;;;;-146.25;100.00;70816.00;5076306;28;20024;-61
2024/01/02 06:07:29;;;;;;;2.63;1.10;;;;;;;-146.25;100.00;70816.00;5074722;28;20074;-61
2024/01/02 06:09:55;;;;;;;1.13;0.93;;;;;;;-146.25;100.00;70816.00;5075237;28;20036;-60
2024/01/02 06:12:20;;;;;;;1.08;0.80;;;;;;;-146.25;100.00;70816.00;5077238;28;20040;-58
2024/01/02 06:14:46;;;;;;;0.75;0.75;;;;;;;-146.25;100.00;70816.00;5074250;28;20068;-59
2024/01/02 06:17:12;;;;;;;1.35;1.00;;;;;;;-146.25;100.00;70816.00;5074641;28;20036;-59
2024/01/02 06:19:37;;;;;;;0.90;0.80;;;;;;;-146.25;100.00;70816.00;5073794;28;20040;-60
2024/01/02 06:22:03;;;;;;;1.10;1.00;;;;;;;-146.25;100.00;70816.00;5074958;28;20044;-59
2024/01/02 06:24:28;;;;;;;2.58;1.08;;;;;;;-146.25;100.00;70816.00;5075876;28;20479;-60
2024/01/02 06:26:53;;;;;;;1.30;1.02;;;;;;;-146.25;100.00;70816.00;5073578;28;20025;-60
2024/01/02 06:29:19;;;;;;;2.30;1.20;;;;;;;-146.25;100.00;70816.00;5076078;28;20059;-60
2024/01/02 06:31:44;;;;;;;4.75;1.50;;;;;;;-146.25;100.00;70816.00;5078276;28;20044;-61
2024/01/02 06:34:10;;;;;;;3.08;1.33;;;;;;;-146.25;100.00;70816.00;5079682;28;20035;-60
2024/01/02 06:36:35;;;;;;;4.85;1.90;;;;;;;-146.25;100.00;70816.00;5077341;28;20209;-60
2024/01/02 06:39:00;;;;;;;6.30;2.25;;;;;;;-146.25;100.00;70816.00;5073046;28;20043;-59
2024/01/02 06:41:26;;;;;;;7.18;2.42;;;;;;;-146.25;100.00;70816.00;5071957;28;20142;-60
2024/01/02 06:43:51;;;;;;;7.85;2.28;;;;;;;-146.25;100.00;70816.00;5073476;28;20044;-60
2024/01/02 06:46:16;;;;;;;11.23;3.00;;;;;;;-146.25;100.00;70816.00;5071967;28;20043;-60
2024/01/02 06:48:42;;;;;;;13.00;3.30;;;;;;;-146.25;100.00;70816.00;5070653;28;20529;-60
2024/01/02 06:51:07;;;;;;;12.88;3.38;;;;;;;-146.25;100.00;70816.00;5073778;28;20048;-61
2024/01/02 06:53:32;;;;;;;12.85;3.78;;;;;;;-146.25;100.00;70816.00;5071554;28;20074;-60
2024/01/02 06:55:58;;;;;;;12.70;3.42;;;;;;;-146.25;100.00;70816.00;5071434;28;20077;-59
2024/01/02 06:58:24;;;;;;;16.00;4.47;;;;;;;-146.25;100.00;70816.00;5061868;28;20043;-58
2024/01/02 07:00:49;;;;;;;16.20;4.20;;;;;;;-146.25;100.00;70816.00;5072181;28;20047;-58
2024/01/02 07:03:14;;;;;;;18.02;5.60;;;;;;;-146.25;100.00;70816.00;5074226;28;20460;-59
2024/01/02 07:05:39;;;;;;;16.15;4.82;;;;;;;-146.25;100.00;70816.00;5073007;28;20543;-59
2024/01/02 07:08:05;;;;;;;17.63;5.43;;;;;;;-146.25;100.00;70816.00;5071773;28;20913;-59
2024/01/02 07:10:30;;;;;;;19.73;5.85;;;;;;;-146.25;100.00;70816.00;5071017;28;20540;-59
2024/01/02 07:12:56;;;;;;;20.45;6.28;;;;;;;-146.25;100.00;70816.00;5069745;28;20040;-58
2024/01/02 07:15:21;;;;;;;18.92;6.18;;;;;;;-146.25;100.00;70816.00;5083027;28;20033;-61
2024/01/02 07:17:46;;;;;;;19.00;6.30;;;;;;;-146.25;100.00;70816.00;5070464;28;20638;-61
2024/01/02 07:20:12;;;;;;;20.70;5.85;;;;;;;-146.25;100.00;70816.00;5071296;28;20052;-60
2024/01/02 07:22:37;;;;;;;20.27;6.68;;;;;;;-146.25;100.00;70816.00;5072837;28;20036;-60
2024/01/02 07:25:03;;;;;;;20.10;6.25;;;;;;;-146.25;100.00;70816.00;5070572;28;20403;-59
2024/01/02 07:27:28;;;;;;;20.58;6.97;;;;;;;-146.25;100.00;70816.00;5072083;28;20051;-60
2024/01/02 07:29:53;;;;;;;18.73;6.22;;;;;;;-146.25;100.00;70816.00;5069748;28;20535;-59
2024/01/02 07:32:19;;;;;;;22.13;7.78;;;;;;;-146.25;100.00;70816.00;5070280;28;20090;-61
2024/01/02 07:34:44;;;;;;;20.75;6.90;;;;;;;-146.25;100.00;70816.00;5072571;28;20404;-59
2024/01/02 07:37:11;;;;;;;21.45;7.43;;;;;;;-146.25;100.00;70816.00;5070005;28;20404;-58
2024/01/02 07:39:36;;;;;;;20.92;7.13;;;;;;;-146.25;100.00;70816.00;5079805;28;20067;-58
2024/01/02 07:42:01;;;;;;;23.35;7.60;;;;;;;-146.25;100.00;70816.00;5075652;28;20131;-58
2024/01/02 07:44:27;;;;;;;22.08;7.38;;;;;;;-146.25;100.00;70816.00;5069369;28;20082;-58
2024/01/02 07:46:52;;;;;;;21.13;7.18;;;;;;;-146.25;100.00;70816.00;5087148;28;20040;-59
2024/01/02 07:49:18;;;;;;;22.42;7.25;;;;;;;-146.25;100.00;70816.00;5084208;28;20036;-59
2024/01/02 07:51:44;;;;;;;21.40;7.13;;;;;;;-146.25;100.00;70816.00;5069895;28;20464;-59
2024/01/02 07:54:09;;;;;;;20.65;6.72;;;;;;;-146.25;100.00;70816.00;5079269;28;20089;-58
2024/01/02 07:56:34;;;;;;;20.73;7.28;;;;;;;-146.25;100.00;70816.00;5081366;28;20083;-60
2024/01/02 07:59:00;;;;;;;20.02;6.57;;;;;;;-146.25;100.00;70816.00;5069551;28;20064;-59
2024/01/02 08:01:25;;;;;;;20.67;6.47;;;;;;;-146.25;100.00;70816.00;5070690;28;20497;-58
2024/01/02 08:03:50;;;;;;;21.98;6.60;;;;;;;-146.25;100.00;70816.00;5068993;28;20052;-59
2024/01/02 08:06:16;;;;;;;20.70;6.45;;;;;;;-146.25;100.00;70816.00;5073689;28;20075;-59
2024/01/02 08:08:41;;;;;;;20.55;6.55;;;;;;;-146.25;100.00;70816.00;5074580;28;20040;-58
2024/01/02 08:11:08;;;;;;;20.13;6.30;;;;;;;-146.25;100.00;70816.00;5076257;28;20040;-58
2024/01/02 08:13:34;;;;;;;21.02;6.30;;;;;;;-146.25;100.00;70816.00;5071364;28;20491;-57
2024/01/02 08:15:59;;;;;;;20.95;6.20;;;;;;;-146.25;100.00;70816.00;5071863;28;20638;-58
2024/01/02 08:18:24;;;;;;;20.00;5.72;;;;;;;-146.25;100.00;70816.00;5071505;28;20503;-57
2024/01/02 08:20:49;;;;;;;19.83;5.63;;;;;;;-146.25;100.00;70816.00;5072601;28;20044;-59
2024/01/02 08:23:15;;;;;;;19.77;5.88;;;;;;;-146.25;100.00;70816.00;5071677;28;20045;-60
2024/01/02 08:25:41;;;;;;;19.40;5.60;;;;;;;-146.25;100.00;70816.00;5070281;28;20056;-59
2024/01/02 08:28:06;;;;;;;18.13;5.20;;;;;;;-146.25;100.00;70816.00;5073735;28;20073;-59
2024/01/02 08:30:32;;;;;;;20.52;5.72;;;;;;;-146.25;100.00;70816.00;5081426;28;20054;-58
2024/01/02 08:32:58;;;;;;;19.73;5.75;;;;;;;-146.25;100.00;70816.00;5089535;28;20069;-58
2024/01/02 08:35:23;;;;;;;18.67;6.00;;;;;;;-146.25;100.00;70816.00;5077221;28;20140;-64
2024/01/02 08:37:49;;;;;;;18.98;5.05;;;;;;;-146.25;100.00;70816.00;5075323;28;20044;-60
2024/01/02 08:40:14;;;;;;;19.77;5.60;;;;;;;-146.25;100.00;70816.00;5075137;28;20104;-59
2024/01/02 08:42:40;;;;;;;17.88;5.30;;;;;;;-146.25;100.00;70816.00;5072772;28;20044;-60
2024/01/02 08:45:07;;;;;;;18.58;4.78;;;;;;;-146.25;100.00;70816.00;5074682;28;20035;-60
2024/01/02 08:47:33;;;;;;;18.00;4.85;;;;;;;-146.25;100.00;70816.00;5076867;28;20040;-58
2024/01/02 08:49:59;;;;;;;16.65;5.07;;;;;;;-146.25;100.00;70816.00;5077033;28;20046;-59
2024/01/02 08:52:24;;;;;;;18.08;4.82;;;;;;;-146.25;100.00;70816.00;5084135;28;20077;-59
2024/01/02 08:54:49;;;;;;;17.13;4.40;;;;;;;-146.25;100.00;70816.00;5077266;28;20044;-59
2024/01/02 08:57:15;;;;;;;18.58;4.57;;;;;;;-146.25;100.00;70816.00;5071070;28;20044;-58
2024/01/02 08:59:41;;;;;;;19.02;5.35;;;;;;;-146.25;100.00;70816.00;5084128;28;20150;-58
2024/01/02 09:02:06;;;;;;;17.80;4.85;;;;;;;-146.25;100.00;70816.00;5086464;28;20032;-59
2024/01/02 09:04:31;;;;;;;19.85;4.95;;;;;;;-146.25;100.00;70816.00;5090172;28;20043;-59
2024/01/02 09:06:57;;;;;;;16.23;4.32;;;;;;;-146.25;100.00;70816.00;5068996;28;20298;-59
2024/01/02 09:09:23;;;;;;;18.80;4.30;;;;;;;-146.25;100.00;70816.00;5083894;28;20028;-59
2024/01/02 09:11:48;;;;;;;14.77;4.28;;;;;;;-146.25;100.00;70816.00;5080580;28;20028;-59
2024/01/02 09:14:13;;;;;;;16.88;4.63;;;;;;;-146.25;100.00;70816.00;5072223;28;20039;-58
2024/01/02 09:16:39;;;;;;;17.05;4.18;;;;;;;-146.25;100.00;70816.00;5078895;28;20443;-60
2024/01/02 09:19:04;;;;;;;17.85;4.10;;;;;;;-146.25;100.00;70816.00;5078165;28;20047;-60
2024/01/02 09:21:30;;;;;;;15.05;3.63;;;;;;;-146.25;100.00;70816.00;5076585;28;20043;-60
2024/01/02 09:23:55;;;;;;;14.18;3.88;;;;;;;-146.25;100.00;70816.00;5073435;28;20344;-59
2024/01/02 09:26:23;;;;;;;13.07;3.30;;;;;;;-146.25;100.00;70816.00;5079912;28;20028;-59
2024/01/02 09:28:49;;;;;;;13.77;3.50;;;;;;;-146.25;100.00;70816.00;5081637;28;20055;-60
2024/01/02 09:31:14;;;;;;;12.15;3.60;;;;;;;-146.25;100.00;70816.00;5071098;28;20036;-60
2024/01/02 09:33:43;;;;;;;12.15;3.45;;;;;;;-146.25;100.00;70816.00;5073082;28;20625;-59
2024/01/02 09:36:08;;;;;;;14.93;3.40;;;;;;;-146.25;100.00;70816.00;5071789;28;20556;-62
2024/01/02 09:38:37;;;;;;;13.05;3.35;;;;;;;-146.25;100.00;70816.00;5073694;28;20573;-60
2024/01/02 09:41:40;;;;;;;10.98;3.22;;;;;;;-146.25;100.00;70816.00;5073521;28;20128;-59
2024/01/02 09:44:14;;;;;;;8.25;2.75;;;;;;;-146.25;100.00;70816.00;5073609;28;20046;-61
2024/01/02 09:46:55;;;;;;;10.75;3.05;;;;;;;-146.25;100.00;70816.00;5073484;28;20123;-61
2024/01/02 09:49:44;;;;;;;6.22;2.58;;;;;;;-146.25;100.00;70816.00;5072281;28;20075;-61
2024/01/02 09:52:28;;;;;;;6.38;2.55;;;;;;;-146.25;100.00;70816.00;5062003;28;20046;-60
2024/01/02 09:55:29;;;;;;;7.80;3.00;;;;;;;-146.25;100.00;70816.00;5075491;28;20146;-61
2024/01/02 09:58:36;;;;;;;8.63;2.80;;;;;;;-146.25;100.00;70816.00;5074991;28;20115;-61
2024/01/02 10:01:20;;;;;;;6.38;2.55;;;;;;;-146.25;100.00;70816.00;5065146;28;20055;-61
2024/01/02 10:04:06;;;;;;;5.82;2.40;;;;;;;-146.25;100.00;70816.00;5082453;28;20487;-60
2024/01/02 10:06:50;;;;;;;6.65;2.60;;;;;;;-146.25;100.00;70816.00;5072051;28;20499;-60
2024/01/02 10:09:39;;;;;;;6.90;2.40;;;;;;;-146.25;100.00;70816.00;5074029;28;20040;-60
2024/01/02 10:12:26;;;;;;;4.72;2.22;;;;;;;-146.25;100.00;70816.00;5070843;28;20474;-59
2024/01/02 10:15:19;;;;;;;8.18;2.53;;;;;;;-146.25;100.00;70816.00;5072799;28;20040;-59
2024/01/02 10:18:01;;;;;;;6.07;2.55;;;;;;;-146.25;100.00;70816.00;5075371;28;20031;-59
2024/01/02 10:20:39;;;;;;;7.68;2.58;;;;;;;-146.25;100.00;70816.00;5071992;28;20077;-59
2024/01/02 10:23:23;;;;;;;5.28;2.40;;;;;;;-146.25;100.00;70816.00;5072176;28;20043;-60
2024/01/02 10:25:53;;;;;;;4.35;2.22;;;;;;;-146.25;100.00;70816.00;5071519;28;20094;-59
2024/01/02 10:28:27;;;;;;;7.55;2.50;;;;;;;-146.25;100.00;70816.00;5069062;28;20387;-59
2024/01/02 10:31:28;;;;;;;4.95;2.20;;;;;;;-146.25;100.00;70816.00;5071572;28;20138;-60
2024/01/02 10:34:17;;;;;;;4.57;2.00;;;;;;;-146.25;100.00;70816.00;5054524;28;20513;-59
2024/01/02 10:36:52;;;;;;;5.20;2.30;;;;;;;-146.25;100.00;70816.00;5073728;28;20695;-58
2024/01/02 10:39:43;;;;;;;4.88;2.20;;;;;;;-146.25;100.00;70816.00;5071374;28;20142;-64
2024/01/02 10:42:27;;;;;;;4.30;2.10;;;;;;;-146.25;100.00;70816.00;5073654;28;20048;-59
2024/01/02 10:45:23;;;;;;;4.55;2.00;;;;;;;-146.25;100.00;70816.00;5071168;28;20045;-60
2024/01/02 10:48:04;;;;;;;6.32;2.40;;;;;;;-146.25;100.00;70816.00;5072590;28;20480;-59
2024/01/02 10:50:48;;;;;;;5.95;1.92;;;;;;;-146.25;100.00;70816.00;5072242;28;20055;-62
2024/01/02 10:53:27;;;;;;;;;;;;;;;-146.25;100.00;70816.00;5073584;28;20036;-60
2024/01/02 10:56:21;;;;;;;6.88;2.33;;;;;;;-146.25;100.00;70816.00;5070418;28;19920;-62
2024/01/02 10:59:00;;;;;;;10.45;2.92;;;;;;;-146.25;100.00;70816.00;5015502;28;20140;-59
2024/01/02 11:01:26;;;;;;;3.53;1.70;;;;;;;-146.25;100.00;70816.00;5070270;28;20128;-61
2024/01/02 11:04:09;;;;;;;7.03;1.65;;;;;;;-146.25;100.00;70816.00;5070218;28;20499;-60
2024/01/02 11:06:50;;;;;;;4.33;1.33;;;;;;;-146.25;100.00;70816.00;5070440;28;20028;-60
2024/01/02 11:09:34;;;;;;;3.17;1.15;;;;;;;-146.25;100.00;70816.00;5069087;28;20040;-60